Time;durP1;ratioP1;P1;durP2;ratioP2;P2;SDS_P1;SDS_P2;PMS_P1;PMS_P2;Temp;Humidity;BMP_temperature;BMP_pressure;BME280_temperature;BME280_humidity;BME280_pressure;Samples;Min_cycle;Max_cycle;Signal;HPM_P1;HPM_P2
2021/04/25 00:01:51;;;;;;;35.08;18.55;;;;;;;10.04;57.92;99965.94;5071960;28;20027;-75
2021/04/25 00:04:17;;;;;;;28.92;17.60;;;;;;;10.15;57.87;99963.69;5072357;28;20093;-76
2021/04/25 00:06:43;;;;;;;30.90;19.17;;;;;;;10.03;58.17;99962.31;5054259;28;20040;-72
2021/04/25 00:09:09;;;;;;;32.45;19.75;;;;;;;10.18;58.03;99958.31;5072117;28;20036;-71
2021/04/25 00:11:35;;;;;;;35.20;19.33;;;;;;;10.07;57.54;99956.91;5053883;28;20036;-76
2021/04/25 00:14:01;;;;;;;39.85;20.25;;;;;;;9.94;58.83;99965.06;5054018;28;20043;-76
2021/04/25 00:16:28;;;;;;;36.33;20.77;;;;;;;10.15;57.69;99952.53;5072165;28;20099;-75
2021/04/25 00:18:54;;;;;;;41.20;20.23;;;;;;;10.22;57.18;99955.69;5053377;28;20119;-76
2021/04/25 00:21:21;;;;;;;30.52;19.80;;;;;;;10.22;57.63;99953.72;5053916;28;20028;-76
2021/04/25 00:23:48;;;;;;;26.45;15.63;;;;;;;10.17;57.53;99950.22;5071579;28;20345;-71
2021/04/25 00:26:14;;;;;;;24.88;15.05;;;;;;;10.02;58.17;99960.66;5053587;28;20025;-71
2021/04/25 00:28:39;;;;;;;26.50;17.17;;;;;;;9.87;58.42;99958.28;5053591;28;20040;-71
2021/04/25 00:31:05;;;;;;;31.95;18.13;;;;;;;9.68;59.40;99956.50;5070367;28;20021;-71
2021/04/25 00:33:30;;;;;;;30.70;17.63;;;;;;;9.54;59.85;99964.94;5071631;28;20021;-72
2021/04/25 00:35:57;;;;;;;29.02;19.20;;;;;;;9.44;60.17;99962.41;5053531;28;20036;-71
2021/04/25 00:38:22;;;;;;;33.45;18.42;;;;;;;9.54;60.00;99957.38;5053724;28;20477;-71
2021/04/25 00:40:48;;;;;;;32.22;18.85;;;;;;;9.56;60.18;99965.44;5071576;28;20036;-71
2021/04/25 00:43:13;;;;;;;44.47;23.30;;;;;;;9.29;60.54;99969.16;5071778;28;20032;-75
2021/04/25 00:45:39;;;;;;;46.42;24.85;;;;;;;9.16;61.26;99963.28;5053054;28;20040;-75
2021/04/25 00:48:04;;;;;;;39.88;22.58;;;;;;;9.08;61.35;99956.50;5071334;28;20414;-75
2021/04/25 00:50:30;;;;;;;34.80;19.85;;;;;;;9.30;60.88;99949.31;5071518;28;20062;-76
2021/04/25 00:52:57;;;;;;;33.03;19.13;;;;;;;9.30;60.83;99945.69;5070918;28;20035;-71
2021/04/25 00:55:27;;;;;;;31.25;19.02;;;;;;;9.11;61.48;99955.84;5070590;28;20043;-71
2021/04/25 00:57:54;;;;;;;34.60;19.55;;;;;;;8.99;61.52;99952.78;5071025;28;20237;-71
2021/04/25 01:00:20;;;;;;;31.48;20.52;;;;;;;9.10;61.89;99951.41;5070957;28;20702;-71
2021/04/25 01:02:46;;;;;;;31.58;20.17;;;;;;;9.24;60.74;99947.75;5052919;28;20025;-72
2021/04/25 01:05:13;;;;;;;31.05;19.77;;;;;;;9.18;60.97;99940.66;5069566;28;20115;-76
2021/04/25 01:07:39;;;;;;;33.90;21.27;;;;;;;8.98;61.43;99945.53;5070911;28;20067;-75
2021/04/25 01:10:06;;;;;;;31.83;20.38;;;;;;;9.04;61.18;99947.06;5071029;28;20107;-71
2021/04/25 01:12:32;;;;;;;31.67;20.08;;;;;;;8.97;61.38;99946.69;5070845;28;20051;-72
2021/04/25 01:14:57;;;;;;;26.80;17.50;;;;;;;8.90;61.45;99946.28;5052773;28;20114;-71
2021/04/25 01:17:23;;;;;;;32.88;20.55;;;;;;;9.14;61.09;99943.25;5070796;28;20417;-71
2021/04/25 01:19:49;;;;;;;32.30;19.33;;;;;;;9.33;59.94;99934.72;5052620;28;20475;-71
2021/04/25 01:22:15;;;;;;;29.52;18.58;;;;;;;9.36;59.85;99945.25;5070677;28;20024;-75
2021/04/25 01:24:41;;;;;;;36.90;19.52;;;;;;;9.29;60.11;99941.22;5070801;28;20399;-75
2021/04/25 01:27:06;;;;;;;27.45;18.73;;;;;;;9.16;60.47;99940.97;5052490;28;20042;-75
2021/04/25 01:29:32;;;;;;;35.25;20.65;;;;;;;9.35;59.59;99939.97;5052670;28;20036;-75
2021/04/25 01:31:57;;;;;;;29.80;18.95;;;;;;;9.29;59.92;99947.66;5070330;28;20028;-75
2021/04/25 01:34:26;;;;;;;34.28;17.90;;;;;;;9.37;59.08;99954.44;5070454;28;20471;-75
2021/04/25 01:36:56;;;;;;;30.23;18.77;;;;;;;9.37;59.25;99949.69;5052070;28;20087;-75
2021/04/25 01:39:21;;;;;;;38.45;19.10;;;;;;;9.05;60.30;99945.13;5052494;28;20093;-76
2021/04/25 01:41:47;;;;;;;33.00;19.02;;;;;;;9.09;59.85;99935.81;5070052;28;20478;-76
2021/04/25 01:44:12;;;;;;;29.73;18.85;;;;;;;9.13;60.43;99934.03;5052406;28;20757;-75
2021/04/25 01:46:38;;;;;;;26.08;17.83;;;;;;;9.15;60.03;99938.47;5070272;28;20093;-75
2021/04/25 02:04:38;;;;;;;27.63;18.45;;;;;;;9.39;59.14;99933.44;5062013;27;848197;-72
2021/04/25 02:07:04;;;;;;;29.52;18.73;;;;;;;9.46;59.00;99934.97;5067589;28;20082;-77
2021/04/25 02:09:29;;;;;;;36.67;18.58;;;;;;;9.43;58.67;99941.19;5067872;28;20063;-77
2021/04/25 02:11:55;;;;;;;27.85;17.63;;;;;;;9.11;59.49;99939.09;5062614;28;20466;-70
2021/04/25 02:14:20;;;;;;;29.75;18.73;;;;;;;9.06;59.83;99942.03;5067191;28;20025;-70
2021/04/25 02:16:45;;;;;;;29.33;18.63;;;;;;;9.01;59.61;99939.34;5050015;28;20024;-71
2021/04/25 02:19:11;;;;;;;25.30;16.17;;;;;;;8.94;60.32;99938.94;5067247;28;20044;-71
2021/04/25 02:21:36;;;;;;;36.10;18.08;;;;;;;9.04;60.12;99937.88;5067194;28;20478;-69
2021/04/25 02:24:02;;;;;;;24.95;16.80;;;;;;;9.02;59.74;99934.59;5049462;28;20486;-70
2021/04/25 02:26:28;;;;;;;31.83;19.50;;;;;;;8.88;60.22;99935.44;5066972;28;20033;-71
2021/04/25 02:28:53;;;;;;;31.27;17.80;;;;;;;9.01;60.18;99925.38;5081506;28;20086;-70
2021/04/25 02:31:19;;;;;;;26.50;16.38;;;;;;;8.99;59.61;99924.88;5067007;28;20032;-70
2021/04/25 02:33:45;;;;;;;30.42;17.80;;;;;;;9.06;59.69;99925.28;5067010;28;20025;-69
2021/04/25 02:36:10;;;;;;;28.65;18.13;;;;;;;9.09;60.02;99919.06;5066935;28;20464;-70
2021/04/25 02:38:36;;;;;;;24.67;17.08;;;;;;;9.05;59.94;99925.59;5067123;28;20021;-70
2021/04/25 02:41:02;;;;;;;28.75;16.45;;;;;;;9.08;59.56;99925.78;5048959;28;20033;-70
2021/04/25 02:43:28;;;;;;;25.30;16.90;;;;;;;9.09;59.87;99929.38;5055849;28;20028;-71
2021/04/25 02:45:54;;;;;;;30.90;19.00;;;;;;;9.04;59.32;99927.53;5066828;28;20051;-71
2021/04/25 02:48:19;;;;;;;29.13;18.77;;;;;;;8.93;59.71;99924.16;5066918;28;20429;-70
2021/04/25 02:50:45;;;;;;;27.85;17.35;;;;;;;8.97;59.40;99927.16;5066504;28;20052;-71
2021/04/25 02:53:12;;;;;;;30.40;18.38;;;;;;;8.95;59.68;99921.88;5066690;28;20146;-69
2021/04/25 02:55:39;;;;;;;30.17;18.92;;;;;;;8.75;60.28;99925.94;5066143;28;20048;-70
2021/04/25 02:58:06;;;;;;;31.55;19.00;;;;;;;8.67;60.66;99930.28;5084997;28;20051;-69
2021/04/25 03:00:31;;;;;;;33.72;19.40;;;;;;;8.59;61.29;99930.19;5081676;28;20031;-71
2021/04/25 03:02:58;;;;;;;32.80;19.92;;;;;;;8.40;61.41;99925.50;5061863;28;20045;-70
2021/04/25 03:05:25;;;;;;;27.98;18.02;;;;;;;8.29;61.55;99913.75;5054240;28;20029;-72
2021/04/25 03:07:51;;;;;;;31.52;19.67;;;;;;;8.26;61.91;99928.28;5034803;28;20029;-70
2021/04/25 03:10:18;;;;;;;30.67;18.33;;;;;;;8.50;61.44;99928.13;5052810;28;20453;-70
2021/04/25 03:12:44;;;;;;;45.67;20.80;;;;;;;8.62;60.95;99926.78;5052719;28;20033;-72
2021/04/25 03:15:11;;;;;;;41.20;23.08;;;;;;;8.61;60.55;99930.72;5034858;28;20029;-71
2021/04/25 03:17:37;;;;;;;79.05;40.63;;;;;;;8.55;60.77;99935.56;5052629;28;20053;-70
2021/04/25 03:20:10;;;;;;;107.22;51.53;;;;;;;8.53;60.57;99932.28;5052714;28;20029;-70
2021/04/25 03:22:36;;;;;;;69.72;38.90;;;;;;;8.27;61.57;99936.34;5034744;28;20376;-72
2021/04/25 03:25:04;;;;;;;58.13;31.80;;;;;;;8.14;62.20;99928.78;5052350;28;20554;-69
2021/04/25 03:27:29;;;;;;;59.90;29.98;;;;;;;8.24;62.32;99930.56;5052720;28;20482;-70
2021/04/25 03:29:54;;;;;;;53.03;31.45;;;;;;;7.90;62.46;99924.22;5052475;28;20036;-71
2021/04/25 03:32:20;;;;;;;60.75;34.05;;;;;;;7.82;62.61;99934.09;5052251;28;20036;-71
2021/04/25 03:34:45;;;;;;;62.70;33.50;;;;;;;7.80;62.97;99935.53;5052257;28;20032;-70
2021/04/25 03:37:11;;;;;;;59.13;28.75;;;;;;;7.72;62.59;99934.28;5052301;28;20025;-69
2021/04/25 03:39:37;;;;;;;40.50;21.45;;;;;;;7.66;62.89;99943.81;5052397;28;20029;-69
2021/04/25 03:42:03;;;;;;;38.10;21.85;;;;;;;7.69;63.58;99952.41;5034207;28;20021;-71
2021/04/25 03:44:28;;;;;;;32.95;20.40;;;;;;;7.52;64.16;99952.13;5052195;28;20029;-69
2021/04/25 03:46:55;;;;;;;32.83;18.88;;;;;;;7.32;64.95;99953.28;5051898;28;20102;-72
2021/04/25 03:49:21;;;;;;;34.15;19.35;;;;;;;7.47;64.56;99950.25;5034280;28;20037;-70
2021/04/25 03:51:51;;;;;;;30.75;19.90;;;;;;;7.44;64.85;99956.44;5051831;28;20075;-72
2021/04/25 03:54:16;;;;;;;34.83;22.58;;;;;;;7.29;64.76;99949.97;5034313;28;20040;-72
2021/04/25 03:56:43;;;;;;;31.73;18.77;;;;;;;7.42;63.47;99953.09;5052207;28;20511;-72
2021/04/25 03:59:09;;;;;;;32.78;19.58;;;;;;;7.29;63.42;99951.94;5052778;28;20300;-69
2021/04/25 04:01:34;;;;;;;24.20;16.75;;;;;;;7.20;64.32;99948.16;5042240;28;20039;-70
2021/04/25 04:04:00;;;;;;;30.60;18.63;;;;;;;7.10;64.41;99952.75;5039858;28;20052;-70
2021/04/25 04:06:25;;;;;;;26.05;16.20;;;;;;;7.37;63.56;99958.75;5052081;28;20036;-72
2021/04/25 04:08:50;;;;;;;28.80;16.77;;;;;;;7.42;62.61;99959.50;5051949;28;20469;-71
2021/04/25 04:11:16;;;;;;;29.95;21.67;;;;;;;7.23;64.28;99961.47;5051816;28;20029;-70
2021/04/25 04:13:41;;;;;;;38.40;26.38;;;;;;;7.38;64.37;99957.63;5052188;28;20044;-69
2021/04/25 04:16:07;;;;;;;50.60;34.85;;;;;;;7.64;64.16;99958.06;5032733;28;20037;-72
2021/04/25 04:18:32;;;;;;;65.35;43.13;;;;;;;7.87;62.78;99956.28;5034122;28;20509;-70
2021/04/25 04:20:58;;;;;;;53.13;38.88;;;;;;;7.76;62.80;99959.56;5051922;28;20418;-70
2021/04/25 04:23:23;;;;;;;57.05;36.47;;;;;;;7.69;63.50;99962.72;5033802;28;20041;-72
2021/04/25 04:25:49;;;;;;;44.47;29.95;;;;;;;7.70;63.48;99967.97;5051797;28;20078;-71
2021/04/25 04:28:15;;;;;;;50.83;28.48;;;;;;;7.84;63.09;99967.19;5057625;28;20103;-71
2021/04/25 04:30:40;;;;;;;41.58;27.35;;;;;;;7.93;62.66;99973.72;5057588;28;20417;-71
2021/04/25 04:33:07;;;;;;;37.88;25.13;;;;;;;7.70;64.10;99965.19;5037529;28;20045;-71
2021/04/25 04:35:32;;;;;;;42.38;25.45;;;;;;;7.76;64.02;99967.91;5054162;28;20084;-71
2021/04/25 04:37:58;;;;;;;40.92;25.98;;;;;;;7.92;63.91;99969.28;5051336;28;20498;-71
2021/04/25 04:40:23;;;;;;;128.90;95.43;;;;;;;7.92;63.51;99969.28;5051271;28;20071;-69
2021/04/25 04:42:49;;;;;;;78.82;59.35;;;;;;;7.78;64.59;99980.38;5055963;28;20413;-70
2021/04/25 04:45:16;;;;;;;59.63;37.95;;;;;;;7.96;63.94;99973.16;5051125;28;20032;-71
2021/04/25 04:47:46;;;;;;;47.22;32.65;;;;;;;8.24;63.80;99978.78;5033283;28;20021;-70
2021/04/25 04:50:15;;;;;;;46.28;29.83;;;;;;;8.49;63.37;99978.56;5032976;28;20040;-69
2021/04/25 04:52:41;;;;;;;47.13;32.05;;;;;;;8.82;62.19;99975.72;5051228;28;20029;-69
2021/04/25 04:55:07;;;;;;;51.30;31.77;;;;;;;8.75;62.51;99975.31;5033183;28;20033;-72
2021/04/25 04:57:33;;;;;;;87.47;60.70;;;;;;;8.83;62.69;99974.59;5033123;28;20033;-70
2021/04/25 04:59:58;;;;;;;50.25;30.98;;;;;;;8.81;62.25;99986.06;5051189;28;20048;-70
2021/04/25 05:02:24;;;;;;;50.58;31.20;;;;;;;8.70;62.75;99979.88;5046643;28;20028;-72
2021/04/25 05:04:49;;;;;;;42.95;28.92;;;;;;;8.66;62.80;99980.78;5044275;28;20052;-71
2021/04/25 05:07:15;;;;;;;52.60;29.65;;;;;;;8.46;63.51;99990.34;5061618;28;20052;-72
2021/04/25 05:09:40;;;;;;;54.47;36.45;;;;;;;8.52;64.25;99989.97;5038385;28;20037;-72
2021/04/25 05:12:06;;;;;;;59.72;37.30;;;;;;;8.65;64.39;99985.56;5056445;28;20090;-70
2021/04/25 05:14:32;;;;;;;51.17;33.20;;;;;;;8.70;63.62;99987.41;5058168;28;20033;-72
2021/04/25 05:16:57;;;;;;;44.83;27.35;;;;;;;8.65;63.80;99993.94;5037348;28;20031;-72
2021/04/25 05:19:23;;;;;;;35.35;22.85;;;;;;;8.65;63.73;99984.72;5059264;28;20024;-70
2021/04/25 05:21:48;;;;;;;35.45;21.13;;;;;;;8.94;63.18;99994.75;5053170;28;20554;-70
2021/04/25 05:24:14;;;;;;;29.83;19.92;;;;;;;9.11;62.84;99992.13;5055992;28;20048;-70
2021/04/25 05:26:39;;;;;;;33.15;20.77;;;;;;;9.07;63.33;99999.50;5036083;28;20501;-69
2021/04/25 05:29:05;;;;;;;30.45;17.98;;;;;;;9.20;62.68;99996.97;5036182;28;20039;-70
2021/04/25 05:31:31;;;;;;;23.35;16.27;;;;;;;9.36;61.85;99998.28;5038801;28;20472;-72
2021/04/25 05:33:57;;;;;;;23.05;16.48;;;;;;;9.44;61.86;99998.69;5035642;28;20029;-70
2021/04/25 05:36:22;;;;;;;23.42;14.55;;;;;;;9.88;60.69;100005.44;5059002;28;20040;-71
2021/04/25 05:38:48;;;;;;;29.65;15.73;;;;;;;9.90;59.38;100007.94;5054910;28;20029;-73
2021/04/25 05:41:13;;;;;;;23.48;17.10;;;;;;;9.68;62.16;100009.56;5058044;28;20020;-70
2021/04/25 05:43:39;;;;;;;22.42;14.77;;;;;;;9.81;60.89;100011.47;5056528;28;20071;-74
2021/04/25 05:46:04;;;;;;;25.90;17.17;;;;;;;9.98;59.79;100010.78;5055961;28;20512;-70
2021/04/25 05:48:30;;;;;;;30.55;16.15;;;;;;;9.52;60.73;100011.88;5058569;28;20094;-73
2021/04/25 05:50:55;;;;;;;26.77;17.15;;;;;;;9.43;62.81;100011.81;5054831;28;20025;-73
2021/04/25 05:53:21;;;;;;;31.40;17.55;;;;;;;9.62;61.52;100016.44;5041168;28;20295;-72
2021/04/25 05:55:46;;;;;;;23.55;16.25;;;;;;;9.68;61.26;100010.41;5054903;28;20087;-70
2021/04/25 05:58:12;;;;;;;31.65;18.33;;;;;;;9.71;61.68;100013.69;5057644;28;20020;-73
2021/04/25 06:00:40;;;;;;;29.85;17.60;;;;;;;9.83;61.17;100017.59;5038524;28;20044;-74
2021/04/25 06:03:06;;;;;;;33.55;17.65;;;;;;;10.08;59.75;100009.72;5063388;28;20052;-69
2021/04/25 06:05:32;;;;;;;40.45;18.92;;;;;;;10.15;59.81;100014.00;5050261;28;20048;-72
2021/04/25 06:07:58;;;;;;;35.10;19.35;;;;;;;10.00;60.54;100006.84;5050149;28;20032;-74
2021/04/25 06:10:24;;;;;;;33.03;19.60;;;;;;;9.84;61.91;100010.03;5050151;28;20055;-73
2021/04/25 06:12:51;;;;;;;33.03;19.55;;;;;;;9.79;62.31;100010.16;5032076;28;20422;-73
2021/04/25 06:15:18;;;;;;;35.08;20.90;;;;;;;10.11;60.70;100005.44;5033021;28;20041;-71
2021/04/25 06:17:44;;;;;;;33.80;21.40;;;;;;;10.44;59.15;100005.19;5067355;28;20052;-71
2021/04/25 06:20:12;;;;;;;35.40;19.88;;;;;;;10.51;59.15;99997.16;5064183;28;20219;-69
2021/04/25 06:22:37;;;;;;;31.08;19.00;;;;;;;10.60;60.21;100005.59;5045181;28;20071;-72
2021/04/25 06:25:03;;;;;;;26.88;19.23;;;;;;;10.71;58.65;100008.91;5059403;28;20063;-69
2021/04/25 06:27:29;;;;;;;33.55;20.52;;;;;;;10.43;60.44;100011.91;5064730;28;20035;-69
2021/04/25 06:29:54;;;;;;;34.13;21.52;;;;;;;10.44;61.14;100010.78;5061222;28;20029;-69
2021/04/25 06:32:20;;;;;;;32.33;19.25;;;;;;;10.66;60.11;100003.47;5062710;28;20064;-69
2021/04/25 06:34:46;;;;;;;31.05;20.27;;;;;;;10.84;59.05;99998.78;5063180;28;20033;-70
2021/04/25 06:37:12;;;;;;;35.88;21.92;;;;;;;10.94;59.33;100003.25;5060685;28;20037;-74
2021/04/25 06:39:38;;;;;;;28.60;21.10;;;;;;;10.99;59.81;100007.88;5048125;28;20532;-73
2021/04/25 06:42:04;;;;;;;37.65;26.48;;;;;;;11.16;59.59;100007.09;5062981;28;20463;-70
2021/04/25 06:44:29;;;;;;;44.38;25.42;;;;;;;10.97;60.62;100005.38;5050300;28;20520;-73
2021/04/25 06:46:55;;;;;;;38.95;27.65;;;;;;;11.22;61.52;100003.81;5064820;28;20021;-70
2021/04/25 06:49:22;;;;;;;45.70;31.05;;;;;;;11.28;61.27;99995.22;5066427;28;20056;-70
2021/04/25 06:51:48;;;;;;;48.47;29.95;;;;;;;11.23;59.59;99994.25;5066453;28;20083;-75
2021/04/25 06:54:13;;;;;;;56.80;32.95;;;;;;;11.13;61.64;99994.56;5046275;28;20040;-73
2021/04/25 06:56:39;;;;;;;55.22;34.28;;;;;;;11.17;61.46;100000.34;5068051;28;20025;-72
2021/04/25 06:59:05;;;;;;;60.53;35.60;;;;;;;11.28;62.23;100000.84;5062976;28;20033;-71
2021/04/25 07:01:30;;;;;;;53.05;33.92;;;;;;;11.12;60.95;100000.50;5069255;28;20028;-71
2021/04/25 07:03:56;;;;;;;60.17;36.03;;;;;;;10.93;61.50;100008.03;5026237;28;20060;-73
2021/04/25 07:06:21;;;;;;;49.70;32.50;;;;;;;11.00;61.61;100004.75;5011980;28;20100;-74
2021/04/25 07:08:47;;;;;;;56.63;34.90;;;;;;;11.29;62.26;100002.50;5013794;28;20030;-74
2021/04/25 07:11:13;;;;;;;51.85;34.08;;;;;;;11.28;60.41;100007.28;5013233;28;20556;-71
2021/04/25 07:13:38;;;;;;;59.42;37.38;;;;;;;11.55;61.18;100005.31;5012130;28;20037;-67
2021/04/25 07:16:04;;;;;;;53.78;33.05;;;;;;;11.38;60.27;99998.56;5013314;28;20026;-67
2021/04/25 07:18:30;;;;;;;53.08;31.88;;;;;;;11.00;62.14;100007.56;5013619;28;20518;-72
2021/04/25 07:20:55;;;;;;;52.72;32.00;;;;;;;10.95;61.31;100002.09;5012150;28;20025;-71
2021/04/25 07:23:24;;;;;;;54.88;31.67;;;;;;;11.22;61.89;100011.38;5013156;28;20060;-65
2021/04/25 07:25:49;;;;;;;48.60;28.38;;;;;;;11.44;60.38;100002.03;5013246;28;20034;-65
2021/04/25 07:28:15;;;;;;;48.88;27.13;;;;;;;11.74;61.18;99995.78;5013130;28;20060;-69
2021/04/25 07:30:40;;;;;;;46.05;31.48;;;;;;;11.76;60.76;99996.28;5011837;28;20034;-66
2021/04/25 07:33:06;;;;;;;50.08;31.45;;;;;;;11.90;58.67;99990.50;5012994;28;20376;-70
2021/04/25 07:35:31;;;;;;;43.50;28.55;;;;;;;12.13;59.50;99993.94;5013124;28;20057;-65
2021/04/25 07:37:57;;;;;;;47.22;28.65;;;;;;;12.28;58.25;99994.56;5013143;28;20029;-68
2021/04/25 07:40:25;;;;;;;45.97;29.13;;;;;;;12.32;58.11;99989.97;5012641;28;20045;-67
2021/04/25 07:42:50;;;;;;;47.88;29.73;;;;;;;12.43;58.61;99985.63;5012952;28;20372;-66
2021/04/25 07:45:16;;;;;;;49.55;29.95;;;;;;;12.46;58.36;99984.13;5012848;28;20041;-64
2021/04/25 07:47:43;;;;;;;47.83;28.52;;;;;;;12.52;57.45;99993.19;5012836;28;20185;-68
2021/04/25 07:50:10;;;;;;;47.97;29.25;;;;;;;12.67;56.51;99984.22;5012445;28;20037;-65
2021/04/25 07:52:36;;;;;;;49.47;31.38;;;;;;;12.61;56.80;99979.94;5012585;28;20033;-66
2021/04/25 07:55:04;;;;;;;50.65;28.95;;;;;;;12.56;57.21;99980.94;5012470;28;20061;-74
2021/04/25 07:57:30;;;;;;;48.42;30.73;;;;;;;12.58;58.51;99978.63;5019197;28;20037;-68
2021/04/25 07:59:55;;;;;;;56.03;31.48;;;;;;;12.74;58.44;99970.47;5024601;28;20069;-71
2021/04/25 08:02:22;;;;;;;49.92;33.05;;;;;;;12.92;57.93;99968.41;5027568;28;20537;-66
2021/04/25 08:04:49;;;;;;;49.83;32.17;;;;;;;13.11;56.70;99958.72;5050889;28;20052;-67
2021/04/25 08:07:15;;;;;;;62.28;34.90;;;;;;;13.18;57.00;99963.78;5034035;28;20032;-68
2021/04/25 08:09:40;;;;;;;60.97;36.08;;;;;;;13.00;57.47;99969.50;5051915;28;20036;-67
2021/04/25 08:12:06;;;;;;;66.50;36.50;;;;;;;12.81;58.17;99963.53;5051840;28;20025;-72
2021/04/25 08:14:32;;;;;;;62.60;34.58;;;;;;;13.10;57.30;99961.84;5033767;28;20087;-72
2021/04/25 08:16:58;;;;;;;60.20;33.50;;;;;;;13.17;57.71;99962.16;5051954;28;20474;-67
2021/04/25 08:19:23;;;;;;;97.47;34.75;;;;;;;13.24;57.02;99959.59;5051412;28;20033;-74
2021/04/25 08:21:49;;;;;;;64.90;31.90;;;;;;;13.38;55.84;99959.34;5032844;28;20025;-68
2021/04/25 08:24:14;;;;;;;46.70;28.55;;;;;;;13.75;54.31;99941.88;5033255;28;20441;-72
2021/04/25 08:26:40;;;;;;;52.25;30.42;;;;;;;13.86;54.42;99943.09;5032860;28;20024;-73
2021/04/25 08:29:05;;;;;;;59.00;32.13;;;;;;;13.87;55.39;99930.66;5033779;28;20086;-69
2021/04/25 08:31:31;;;;;;;48.65;30.35;;;;;;;13.86;54.91;99931.84;5033559;28;20520;-74
2021/04/25 08:33:57;;;;;;;48.17;28.67;;;;;;;14.11;55.07;99920.66;5051787;28;20624;-70
2021/04/25 08:36:22;;;;;;;48.47;26.67;;;;;;;13.94;54.12;99918.03;5051451;28;20025;-70
2021/04/25 08:38:48;;;;;;;49.45;29.25;;;;;;;14.18;53.91;99914.47;5051264;28;20094;-70
2021/04/25 08:41:15;;;;;;;61.80;28.75;;;;;;;14.22;53.32;99908.97;5051185;28;20040;-72
2021/04/25 08:43:42;;;;;;;49.38;28.85;;;;;;;13.95;54.32;99908.44;5051232;28;20032;-70
2021/04/25 08:46:08;;;;;;;47.10;27.95;;;;;;;14.23;53.80;99903.00;5051312;28;20043;-73
2021/04/25 08:48:35;;;;;;;55.47;28.80;;;;;;;14.53;53.25;99890.72;5033250;28;20031;-73
2021/04/25 08:51:01;;;;;;;45.72;28.83;;;;;;;14.55;53.27;99891.16;5066174;28;20109;-74
2021/04/25 08:53:26;;;;;;;49.67;29.52;;;;;;;14.60;53.92;99888.13;5039561;28;20123;-73
2021/04/25 08:55:52;;;;;;;45.00;28.48;;;;;;;14.79;51.79;99883.91;5049740;28;20386;-73
2021/04/25 08:58:20;;;;;;;46.95;29.52;;;;;;;14.65;53.16;99882.25;5062628;28;20432;-74
2021/04/25 09:00:45;;;;;;;43.15;27.27;;;;;;;14.90;52.54;99882.25;5041021;28;20048;-71
2021/04/25 09:03:11;;;;;;;50.08;28.33;;;;;;;14.89;52.01;99875.00;5062785;28;20418;-72
2021/04/25 09:05:37;;;;;;;55.40;30.23;;;;;;;14.78;52.49;99874.66;5051179;28;20556;-72
2021/04/25 09:08:04;;;;;;;41.45;27.67;;;;;;;15.01;51.87;99872.16;5050944;28;20055;-69
2021/04/25 09:10:36;;;;;;;42.38;28.00;;;;;;;14.80;52.71;99869.50;5030901;28;20058;-71
2021/04/25 09:13:17;;;;;;;41.92;27.17;;;;;;;14.97;51.38;99864.75;5031162;28;20138;-71
2021/04/25 09:15:43;;;;;;;43.60;28.25;;;;;;;15.14;51.71;99863.66;5044516;28;20033;-69
2021/04/25 09:18:09;;;;;;;42.00;25.52;;;;;;;15.33;49.59;99862.22;5047852;28;20033;-73
2021/04/25 09:20:39;;;;;;;40.42;26.13;;;;;;;15.39;49.25;99864.41;5028989;28;20398;-70
2021/04/25 09:23:07;;;;;;;36.40;25.48;;;;;;;15.42;49.64;99858.06;5047152;28;20052;-70
2021/04/25 09:25:32;;;;;;;38.75;26.00;;;;;;;15.76;49.77;99865.41;5030869;28;20048;-72
2021/04/25 09:28:16;;;;;;;35.97;23.88;;;;;;;15.81;48.65;99851.88;5048590;28;20090;-70
2021/04/25 09:31:02;;;;;;;46.92;25.58;;;;;;;16.18;46.04;99852.84;5050234;28;20041;-72
2021/04/25 09:33:46;;;;;;;41.78;25.45;;;;;;;16.27;47.80;99847.81;5050525;28;20033;-70
2021/04/25 09:36:12;;;;;;;39.45;25.75;;;;;;;16.62;46.52;99841.41;5050331;28;20123;-72
2021/04/25 09:38:38;;;;;;;42.67;27.13;;;;;;;16.62;47.94;99841.41;5050456;28;20066;-70
2021/04/25 09:41:04;;;;;;;39.33;23.48;;;;;;;16.62;46.67;99843.44;5050510;28;20108;-70
2021/04/25 09:43:38;;;;;;;35.47;21.52;;;;;;;16.73;46.04;99838.00;5050499;28;20113;-71
2021/04/25 09:46:04;;;;;;;33.35;19.40;;;;;;;16.86;44.72;99836.69;5049203;28;20521;-75
2021/04/25 09:48:34;;;;;;;28.17;17.50;;;;;;;17.14;43.37;99834.91;5030435;28;20112;-70
2021/04/25 09:51:23;;;;;;;36.08;20.05;;;;;;;17.01;45.26;99832.22;5030556;28;20021;-70
2021/04/25 09:53:48;;;;;;;24.83;16.88;;;;;;;16.73;44.76;99818.25;5049034;28;20033;-71
2021/04/25 09:56:15;;;;;;;26.35;17.63;;;;;;;16.75;45.89;99821.50;5049571;28;20159;-71
2021/04/25 09:59:02;;;;;;;30.80;16.63;;;;;;;16.67;43.67;99821.38;5050281;28;20040;-73
2021/04/25 10:01:33;;;;;;;18.02;12.40;;;;;;;16.61;40.61;99808.72;5057296;28;20029;-72
2021/04/25 10:03:58;;;;;;;;;;;;;;;16.77;46.10;99816.31;5056965;28;20049;-72
2021/04/25 10:06:25;;;;;;;22.35;15.10;;;;;;;16.92;45.44;99807.00;5049949;28;19920;-71
2021/04/25 10:08:52;;;;;;;26.70;15.77;;;;;;;17.11;44.04;99803.38;5032515;28;20501;-71
2021/04/25 10:11:20;;;;;;;22.38;14.73;;;;;;;17.32;44.20;99795.72;5032012;28;20029;-72
2021/04/25 10:13:47;;;;;;;24.73;13.73;;;;;;;17.42;45.11;99788.63;5050478;28;20322;-73
2021/04/25 10:16:17;;;;;;;23.98;15.43;;;;;;;17.54;44.81;99786.47;5053919;28;20052;-73
2021/04/25 10:18:43;;;;;;;21.27;13.68;;;;;;;17.38;44.00;99789.38;5054597;28;20045;-71
2021/04/25 10:21:09;;;;;;;26.65;15.73;;;;;;;17.19;42.87;99784.56;5053928;28;20041;-73
2021/04/25 10:23:35;;;;;;;23.58;14.00;;;;;;;17.48;40.96;99776.63;5036199;28;20119;-69
2021/04/25 10:26:07;;;;;;;24.00;13.48;;;;;;;17.72;42.43;99771.00;5054070;28;20032;-70
2021/04/25 10:28:46;;;;;;;22.20;13.48;;;;;;;17.58;41.41;99768.72;5054263;28;20025;-68
2021/04/25 10:31:20;;;;;;;27.20;14.65;;;;;;;17.66;43.27;99762.81;5035252;28;20498;-67
2021/04/25 10:33:57;;;;;;;20.10;11.50;;;;;;;17.48;41.86;99770.19;5052511;28;20037;-71
2021/04/25 10:36:24;;;;;;;21.83;12.30;;;;;;;17.26;41.38;99753.63;5053589;28;20029;-69
2021/04/25 10:38:50;;;;;;;18.80;12.75;;;;;;;17.29;42.69;99756.88;5057351;28;20059;-72
2021/04/25 10:41:25;;;;;;;34.03;13.07;;;;;;;17.56;42.61;99754.97;5071680;28;20056;-72
2021/04/25 10:44:03;;;;;;;22.15;13.48;;;;;;;17.91;42.29;99742.63;5073650;28;20031;-72
2021/04/25 10:46:53;;;;;;;22.52;12.23;;;;;;;18.04;40.75;99739.63;5069393;28;20071;-72
2021/04/25 10:49:30;;;;;;;15.25;10.70;;;;;;;18.02;39.77;99731.50;5047210;28;20043;-68
2021/04/25 10:52:24;;;;;;;19.10;9.73;;;;;;;17.80;37.99;99727.53;5054781;28;20025;-68
2021/04/25 10:55:16;;;;;;;17.98;10.38;;;;;;;17.83;37.61;99724.72;5068027;28;20043;-68
2021/04/25 10:57:51;;;;;;;20.52;9.77;;;;;;;17.97;39.79;99714.84;5066451;28;20465;-68
2021/04/25 11:00:32;;;;;;;17.45;9.05;;;;;;;17.95;39.70;99711.56;5072717;28;20506;-68
2021/04/25 11:03:00;;;;;;;14.88;9.38;;;;;;;18.36;35.41;99708.19;5069884;28;20120;-68
2021/04/25 11:05:40;;;;;;;17.50;9.60;;;;;;;18.06;36.50;99708.97;5072955;28;20035;-68
2021/04/25 11:08:05;;;;;;;;;;;;;;;17.85;38.87;99717.88;5055236;28;20036;-68
2021/04/25 11:10:51;;;;;;;16.73;9.23;;;;;;;18.47;37.30;99705.50;5072726;28;19927;-68
2021/04/25 11:13:45;;;;;;;18.85;8.23;;;;;;;18.48;35.39;99695.81;5041103;28;20566;-68
2021/04/25 11:16:13;;;;;;;14.02;8.45;;;;;;;18.43;36.97;99696.13;5069962;28;20505;-68
2021/04/25 11:18:45;;;;;;;11.07;8.15;;;;;;;18.48;37.09;99693.78;5065014;28;20452;-68
2021/04/25 11:24:03;;;;;;;12.50;7.78;;;;;;;18.19;35.34;99698.22;5058474;28;20036;-69
2021/04/25 11:26:38;;;;;;;16.00;7.95;;;;;;;18.31;36.00;99685.88;5058591;28;20059;-70
2021/04/25 11:29:19;;;;;;;14.07;7.90;;;;;;;18.43;35.02;99684.81;5062195;28;20051;-69
2021/04/25 11:31:48;;;;;;;14.68;8.07;;;;;;;18.12;34.81;99689.66;5067268;28;20032;-71
2021/04/25 11:34:29;;;;;;;18.27;7.55;;;;;;;18.14;36.81;99695.72;5046901;28;20043;-71
2021/04/25 11:37:13;;;;;;;;;;;;;;;18.20;36.72;99686.53;5042512;28;20025;-69
2021/04/25 11:39:47;;;;;;;10.02;6.00;;;;;;;18.52;32.06;99677.69;5065416;28;19920;-72
2021/04/25 11:42:36;;;;;;;12.27;6.88;;;;;;;19.11;32.32;99670.69;5066213;28;20060;-65